createdAt,value
2018-08-08T00:00:24.437Z,9.80
2018-08-08T00:01:24.417Z,10.10
2018-08-08T00:02:24.398Z,7.70
2018-08-08T00:03:24.378Z,5.70
2018-08-08T00:04:24.359Z,6.00
2018-08-08T00:05:24.337Z,12.60
2018-08-08T00:06:24.316Z,7.60
2018-08-08T00:07:24.298Z,5.60
2018-08-08T00:08:24.276Z,6.40
2018-08-08T00:09:24.257Z,7.10
2018-08-08T00:10:24.236Z,10.00
2018-08-08T00:11:24.738Z,8.70
2018-08-08T00:12:24.195Z,6.70
2018-08-08T00:13:24.175Z,7.60
2018-08-08T00:14:24.155Z,8.80
2018-08-08T00:15:24.136Z,8.90
2018-08-08T00:16:24.366Z,9.10
2018-08-08T00:17:24.299Z,6.70
2018-08-08T00:18:24.075Z,6.80
2018-08-08T00:19:24.055Z,6.20
2018-08-08T00:20:24.236Z,5.80
2018-08-08T00:21:24.218Z,5.60
2018-08-08T00:22:23.994Z,8.60
2018-08-08T00:23:24.176Z,9.20
2018-08-08T00:24:25.179Z,11.40
2018-08-08T00:25:23.934Z,15.30
2018-08-08T00:26:23.914Z,18.00
2018-08-08T00:27:23.893Z,15.60
2018-08-08T00:28:24.124Z,13.50
2018-08-08T00:29:23.856Z,9.30
2018-08-08T00:30:23.832Z,10.20
2018-08-08T00:31:23.813Z,10.20
2018-08-08T00:32:23.795Z,8.50
2018-08-08T00:33:23.789Z,7.70
2018-08-08T00:34:23.751Z,11.40
2018-08-08T00:35:23.734Z,9.30
2018-08-08T00:36:23.709Z,8.40
2018-08-08T00:37:23.692Z,8.10
2018-08-08T00:38:23.669Z,10.60
2018-08-08T00:39:23.650Z,10.40
2018-08-08T00:40:23.636Z,7.20
2018-08-08T00:41:23.609Z,6.70
2018-08-08T00:42:23.595Z,6.50
2018-08-08T00:43:23.570Z,8.00
2018-08-08T00:44:23.548Z,9.10
2018-08-08T00:45:23.534Z,8.60
2018-08-08T00:46:23.508Z,12.00
2018-08-08T00:47:23.488Z,7.00
2018-08-08T00:48:23.467Z,10.90
2018-08-08T00:49:23.447Z,9.00
2018-08-08T00:50:23.427Z,8.70
2018-08-08T00:51:23.413Z,9.30
2018-08-08T00:52:23.393Z,8.20
2018-08-08T00:53:23.574Z,8.50
2018-08-08T00:54:23.352Z,9.30
2018-08-08T00:55:23.329Z,10.00
2018-08-08T00:56:23.305Z,6.90
2018-08-08T00:57:23.487Z,8.30
2018-08-08T01:00:29.929Z,7.10
2018-08-08T01:01:29.707Z,7.90
2018-08-08T01:02:29.685Z,8.70
2018-08-08T01:03:29.666Z,11.30
2018-08-08T01:04:29.646Z,8.20
2018-08-08T01:05:29.624Z,7.10
2018-08-08T01:06:29.607Z,11.50
2018-08-08T01:07:29.583Z,11.00
2018-08-08T01:08:29.625Z,6.80
2018-08-08T01:09:29.543Z,7.20
2018-08-08T01:10:29.520Z,11.80
2018-08-08T01:11:29.502Z,10.60
2018-08-08T01:12:29.481Z,13.10
2018-08-08T01:13:29.466Z,10.50
2018-08-08T01:14:29.440Z,10.60
2018-08-08T01:15:29.421Z,13.30
2018-08-08T01:16:29.400Z,13.90
2018-08-08T01:17:29.378Z,8.50
2018-08-08T01:18:29.360Z,10.10
2018-08-08T01:19:29.339Z,10.20
2018-08-08T01:20:29.318Z,11.90
2018-08-08T01:21:29.297Z,7.20
2018-08-08T01:22:29.277Z,7.90
2018-08-08T01:23:29.256Z,11.60
2018-08-08T01:24:29.236Z,9.10
2018-08-08T01:25:29.214Z,9.90
2018-08-08T01:26:29.194Z,12.50
2018-08-08T01:27:29.174Z,10.70
2018-08-08T01:28:29.155Z,7.60
2018-08-08T01:29:29.336Z,7.80
2018-08-08T01:30:29.317Z,9.40
2018-08-08T01:31:29.294Z,7.10
2018-08-08T01:32:29.291Z,9.10
2018-08-08T01:33:29.050Z,9.10
2018-08-08T01:34:29.030Z,8.80
2018-08-08T01:35:29.009Z,12.10
2018-08-08T01:36:28.989Z,8.80
2018-08-08T01:37:29.169Z,11.20
2018-08-08T01:38:28.952Z,8.00
2018-08-08T01:39:28.927Z,11.80
2018-08-08T01:40:28.906Z,8.20
2018-08-08T01:41:28.885Z,10.60
2018-08-08T01:42:29.069Z,8.50
2018-08-08T01:43:28.844Z,9.60
2018-08-08T01:44:28.825Z,11.20
2018-08-08T01:45:29.029Z,12.80
2018-08-08T01:46:28.782Z,11.90
2018-08-08T01:47:28.764Z,10.10
2018-08-08T01:48:28.741Z,9.50
2018-08-08T01:49:28.725Z,11.80
2018-08-08T01:50:28.701Z,10.40
2018-08-08T01:51:28.679Z,11.00
2018-08-08T01:52:28.860Z,12.40
2018-08-08T01:53:28.643Z,10.40
2018-08-08T01:54:28.821Z,12.20
2018-08-08T01:55:28.604Z,11.00
2018-08-08T01:56:28.578Z,9.60
2018-08-08T01:57:28.555Z,9.20
2018-08-08T01:58:28.538Z,11.30
2018-08-08T01:59:28.512Z,12.10
2018-08-08T02:00:28.493Z,14.30
2018-08-08T02:01:28.471Z,7.80
2018-08-08T02:02:28.652Z,8.30
2018-08-08T02:03:28.430Z,9.30
2018-08-08T02:04:28.408Z,11.70
2018-08-08T02:05:28.386Z,11.40
2018-08-08T02:06:28.580Z,10.30
2018-08-08T02:10:59.320Z,10.20
2018-08-08T02:11:59.094Z,9.80
2018-08-08T02:12:59.070Z,12.10
2018-08-08T02:13:59.051Z,12.10
2018-08-08T02:14:59.028Z,17.80
2018-08-08T02:15:59.015Z,9.90
2018-08-08T02:16:58.987Z,14.60
2018-08-08T02:17:58.966Z,13.50
2018-08-08T02:18:58.945Z,13.10
2018-08-08T02:19:58.924Z,10.20
2018-08-08T02:20:58.903Z,11.40
2018-08-08T02:21:58.882Z,10.80
2018-08-08T02:53:11.626Z,11.20
2018-08-08T02:54:11.603Z,9.30
2018-08-08T02:55:11.377Z,12.00
2018-08-08T02:56:11.361Z,14.90
2018-08-08T02:57:11.338Z,10.20
2018-08-08T02:58:11.311Z,12.50
2018-08-08T02:59:11.299Z,11.10
2018-08-08T03:00:11.270Z,11.20
2018-08-08T03:01:11.245Z,10.40
2018-08-08T03:02:11.222Z,13.40
2018-08-08T03:03:11.201Z,10.40
2018-08-08T03:04:11.181Z,12.50
2018-08-08T03:05:11.174Z,12.90
2018-08-08T03:06:11.139Z,11.00
2018-08-08T03:07:11.114Z,12.00
2018-08-08T03:08:11.091Z,9.80
2018-08-08T03:09:11.070Z,11.00
2018-08-08T03:10:11.070Z,11.90
2018-08-08T03:11:11.026Z,9.20
2018-08-08T03:12:11.210Z,11.20
2018-08-08T03:13:10.982Z,15.90
2018-08-08T03:14:10.962Z,12.40
2018-08-08T03:15:10.940Z,9.50
2018-08-08T03:16:10.919Z,8.60
2018-08-08T03:17:10.901Z,10.30
2018-08-08T03:18:10.878Z,8.80
2018-08-08T03:19:10.854Z,14.40
2018-08-08T03:20:10.833Z,13.80
2018-08-08T03:21:10.819Z,13.10
2018-08-08T03:22:10.789Z,14.70
2018-08-08T03:23:10.768Z,10.60
2018-08-08T03:24:10.746Z,9.40
2018-08-08T03:25:10.730Z,14.40
2018-08-08T03:26:10.749Z,12.90
2018-08-08T03:27:10.684Z,11.10
2018-08-08T03:28:10.669Z,13.60
2018-08-08T03:29:10.640Z,15.90
2018-08-08T03:30:10.620Z,11.50
2018-08-08T03:31:10.664Z,16.40
2018-08-08T03:32:10.577Z,23.00
2018-08-08T03:33:10.553Z,22.80
2018-08-08T03:34:10.533Z,22.30
2018-08-08T03:35:10.514Z,14.00
2018-08-08T03:36:10.497Z,16.40
2018-08-08T03:37:10.468Z,12.20
2018-08-08T03:38:10.448Z,16.90
2018-08-08T03:39:10.428Z,14.00
2018-08-08T03:40:10.407Z,11.80
2018-08-08T03:41:10.385Z,17.20
2018-08-08T03:42:10.360Z,21.80
2018-08-08T03:43:10.339Z,17.60
2018-08-08T03:44:10.318Z,13.70
2018-08-08T03:45:10.296Z,9.10
2018-08-08T03:46:10.275Z,11.90
2018-08-08T03:47:10.254Z,10.40
2018-08-08T03:48:10.233Z,15.70
2018-08-08T03:49:10.211Z,13.90
2018-08-08T03:50:10.189Z,11.20
2018-08-08T03:51:10.173Z,11.80
2018-08-08T03:52:10.146Z,14.70
2018-08-08T03:53:10.147Z,13.00
2018-08-08T03:54:10.103Z,14.10
2018-08-08T03:55:10.139Z,15.30
2018-08-08T03:56:10.074Z,12.70
2018-08-08T03:57:10.042Z,18.00
2018-08-08T03:58:10.016Z,13.90
2018-08-08T03:59:09.997Z,10.90
2018-08-08T04:00:09.997Z,12.50
2018-08-08T04:01:09.954Z,12.20
2018-08-08T04:02:09.956Z,14.30
2018-08-08T04:03:09.912Z,11.60
2018-08-08T04:04:09.889Z,12.10
2018-08-08T04:05:09.867Z,11.80
2018-08-08T04:06:09.846Z,16.20
2018-08-08T04:07:09.825Z,12.90
2018-08-08T04:08:09.804Z,15.30
2018-08-08T04:09:09.831Z,11.70
2018-08-08T04:10:09.761Z,15.00
2018-08-08T04:11:09.739Z,10.30
2018-08-08T04:12:09.719Z,9.40
2018-08-08T04:13:09.700Z,16.50
2018-08-08T04:14:09.675Z,16.40
2018-08-08T04:15:09.662Z,13.90
2018-08-08T04:16:09.633Z,18.80
2018-08-08T04:17:09.618Z,19.90
2018-08-08T04:18:09.592Z,16.70
2018-08-08T04:19:09.570Z,12.60
2018-08-08T04:20:09.548Z,16.80
2018-08-08T04:21:09.528Z,17.00
2018-08-08T04:22:09.505Z,15.50
2018-08-08T04:23:09.484Z,22.40
2018-08-08T04:24:09.469Z,22.40
2018-08-08T04:25:09.447Z,17.50
2018-08-08T04:26:09.421Z,19.10
2018-08-08T04:27:09.403Z,15.60
2018-08-08T04:28:09.380Z,17.60
2018-08-08T04:29:09.359Z,14.40
2018-08-08T04:30:09.339Z,11.00
2018-08-08T04:31:09.373Z,14.80
2018-08-08T04:32:09.296Z,17.30
2018-08-08T04:33:09.275Z,12.00
2018-08-08T04:34:09.258Z,12.50
2018-08-08T04:35:09.234Z,10.30
2018-08-08T04:36:09.212Z,11.00
2018-08-08T04:37:09.192Z,13.30
2018-08-08T04:38:09.169Z,13.70
2018-08-08T04:39:09.149Z,13.00
2018-08-08T04:40:09.131Z,10.40
2018-08-08T04:41:09.108Z,11.20
2018-08-08T04:42:09.086Z,11.00
2018-08-08T04:43:09.065Z,11.50
2018-08-08T04:44:09.045Z,12.50
2018-08-08T04:45:09.024Z,13.90
2018-08-08T04:46:09.003Z,13.30
2018-08-08T04:47:08.985Z,10.40
2018-08-08T04:48:08.962Z,16.00
2018-08-08T04:49:08.941Z,14.50
2018-08-08T04:50:08.920Z,13.10
2018-08-08T04:51:08.900Z,16.10
2018-08-08T04:52:08.879Z,13.60
2018-08-08T04:53:08.861Z,14.30
2018-08-08T04:54:08.837Z,15.90
2018-08-08T04:55:08.817Z,18.90
2018-08-08T04:56:08.796Z,12.00
2018-08-08T04:57:08.776Z,11.80
2018-08-08T04:58:08.757Z,11.10
2018-08-08T04:59:08.734Z,13.60
2018-08-08T05:00:08.718Z,15.00
2018-08-08T05:01:08.693Z,17.00
2018-08-08T05:02:08.674Z,15.50
2018-08-08T05:03:08.650Z,13.80
2018-08-08T05:04:08.631Z,15.20
2018-08-08T05:05:08.612Z,14.40
2018-08-08T05:06:08.589Z,12.60
2018-08-08T05:07:08.569Z,11.50
2018-08-08T05:08:08.549Z,12.20
2018-08-08T05:09:08.529Z,13.80
2018-08-08T05:10:08.511Z,10.80
2018-08-08T05:11:08.488Z,14.60
2018-08-08T05:12:08.467Z,15.40
2018-08-08T05:13:08.448Z,16.80
2018-08-08T05:14:08.425Z,15.90
2018-08-08T05:15:08.408Z,13.70
2018-08-08T05:16:08.385Z,17.00
2018-08-08T05:17:08.365Z,18.10
2018-08-08T05:18:08.348Z,14.40
2018-08-08T05:19:08.324Z,13.00
2018-08-08T05:20:08.388Z,13.40
2018-08-08T05:21:08.288Z,13.90
2018-08-08T05:22:08.261Z,13.20
2018-08-08T05:23:08.444Z,14.50
2018-08-08T05:24:08.426Z,14.80
2018-08-08T05:25:08.202Z,13.30
2018-08-08T05:26:08.384Z,13.90
2018-08-08T05:27:08.163Z,15.00
2018-08-08T05:28:08.141Z,17.40
2018-08-08T05:29:08.122Z,17.30
2018-08-08T05:30:08.303Z,15.80
2018-08-08T05:31:08.082Z,13.00
2018-08-08T05:32:08.263Z,12.30
2018-08-08T05:33:08.243Z,13.90
2018-08-08T05:34:08.425Z,13.10
2018-08-08T05:35:08.201Z,14.50
2018-08-08T05:36:07.986Z,17.20
2018-08-08T05:37:07.958Z,16.60
2018-08-08T05:38:07.939Z,12.70
2018-08-08T05:39:07.919Z,16.50
2018-08-08T05:40:07.901Z,13.30
2018-08-08T05:41:51.453Z,20.70
2018-08-08T05:42:50.263Z,24.70
2018-08-08T05:43:49.994Z,21.30
2018-08-08T05:44:49.975Z,19.00
2018-08-08T05:45:49.956Z,19.90
2018-08-08T05:46:49.938Z,20.40
2018-08-08T05:47:49.916Z,17.80
2018-08-08T05:48:49.901Z,18.60
2018-08-08T05:49:49.878Z,15.60
2018-08-08T05:50:49.858Z,17.00
2018-08-08T05:51:49.838Z,16.90
2018-08-08T05:52:49.822Z,23.80
2018-08-08T05:53:49.802Z,19.10
2018-08-08T05:54:49.784Z,22.50
2018-08-08T05:55:49.763Z,23.90
2018-08-08T05:56:49.742Z,17.90
2018-08-08T05:57:49.726Z,19.80
2018-08-08T05:58:49.707Z,18.20
2018-08-08T05:59:49.687Z,17.60
2018-08-08T06:00:49.666Z,28.20
2018-08-08T06:01:49.648Z,33.70
2018-08-08T06:02:49.633Z,27.50
2018-08-08T06:03:49.610Z,22.50
2018-08-08T06:04:49.591Z,24.00
2018-08-08T06:05:49.572Z,28.20
2018-08-08T06:06:49.559Z,25.90
2018-08-08T06:07:49.534Z,31.20
2018-08-08T06:08:49.526Z,32.00
2018-08-08T06:09:49.496Z,24.70
2018-08-08T06:10:49.480Z,29.90
2018-08-08T06:11:49.460Z,27.20
2018-08-08T06:12:49.441Z,19.50
2018-08-08T06:13:49.422Z,20.60
2018-08-08T06:14:49.402Z,23.30
2018-08-08T06:15:49.387Z,17.70
2018-08-08T06:16:49.366Z,17.20
2018-08-08T06:17:49.348Z,17.30
2018-08-08T06:18:49.328Z,15.90
2018-08-08T06:19:49.313Z,12.60
2018-08-08T06:20:49.290Z,13.10
2018-08-08T06:21:49.273Z,16.70
2018-08-08T06:22:49.257Z,13.30
2018-08-08T06:23:49.234Z,19.90
2018-08-08T06:24:49.218Z,34.80
2018-08-08T06:25:49.201Z,54.40
2018-08-08T06:26:49.178Z,35.30
2018-08-08T06:27:49.167Z,30.20
2018-08-08T06:28:49.143Z,33.80
2018-08-08T06:29:49.127Z,27.00
2018-08-08T06:30:49.104Z,39.70
2018-08-08T06:31:49.086Z,25.30
2018-08-08T06:32:49.068Z,31.40
2018-08-08T06:33:49.060Z,24.80
2018-08-08T06:34:49.031Z,15.60
2018-08-08T06:35:49.014Z,18.20
2018-08-08T06:36:48.996Z,17.90
2018-08-08T06:37:48.982Z,20.70
2018-08-08T06:38:48.959Z,16.60
2018-08-08T06:39:48.939Z,16.90
2018-08-08T06:40:48.920Z,15.90
2018-08-08T06:41:48.902Z,20.90
2018-08-08T06:42:48.885Z,16.20
2018-08-08T06:43:48.876Z,15.00
2018-08-08T06:44:48.846Z,17.80
2018-08-08T06:45:48.827Z,17.00
2018-08-08T06:46:48.807Z,12.10
2018-08-08T06:47:48.790Z,15.90
2018-08-08T06:48:48.771Z,18.20
2018-08-08T06:49:48.757Z,15.90
2018-08-08T06:50:48.737Z,12.80
2018-08-08T06:51:48.715Z,16.40
2018-08-08T06:52:48.700Z,17.90
2018-08-08T06:53:48.679Z,15.00
2018-08-08T06:54:48.659Z,16.70
2018-08-08T06:55:48.641Z,15.30
2018-08-08T06:56:48.621Z,14.70
2018-08-08T06:57:48.603Z,21.30
2018-08-08T06:58:48.584Z,16.50
2018-08-08T06:59:48.600Z,14.90
2018-08-08T07:00:48.547Z,18.10
2018-08-08T07:01:48.528Z,19.70
2018-08-08T07:02:48.510Z,20.60
2018-08-08T07:03:48.489Z,15.30
2018-08-08T07:04:48.470Z,18.10
2018-08-08T07:05:48.451Z,17.10
2018-08-08T07:06:48.431Z,15.20
2018-08-08T07:07:48.416Z,15.20
2018-08-08T07:08:48.392Z,16.10
2018-08-08T07:09:48.374Z,13.20
2018-08-08T07:10:48.356Z,16.40
2018-08-08T07:11:48.362Z,13.60
2018-08-08T07:12:48.317Z,13.50
2018-08-08T07:13:48.298Z,17.00
2018-08-08T07:14:48.276Z,20.00
2018-08-08T07:15:48.256Z,15.20
2018-08-08T07:16:48.241Z,15.90
2018-08-08T07:17:48.218Z,17.40
2018-08-08T07:18:48.198Z,17.30
2018-08-08T07:19:48.219Z,17.10
2018-08-08T07:20:48.165Z,16.50
2018-08-08T07:21:48.143Z,16.00
2018-08-08T07:22:48.123Z,15.10
2018-08-08T07:23:48.102Z,17.00
2018-08-08T07:24:48.083Z,17.40
2018-08-08T07:25:48.064Z,19.70
2018-08-08T07:26:48.044Z,15.10
2018-08-08T07:27:48.029Z,15.10
2018-08-08T07:28:48.008Z,17.90
2018-08-08T07:29:47.989Z,18.70
2018-08-08T07:30:47.972Z,18.60
2018-08-08T07:31:47.949Z,13.20
2018-08-08T07:32:47.934Z,13.90
2018-08-08T07:33:47.911Z,18.70
2018-08-08T07:34:47.892Z,22.30
2018-08-08T07:35:47.873Z,26.70
2018-08-08T07:36:47.855Z,30.80
2018-08-08T07:37:47.836Z,21.50
2018-08-08T07:38:48.021Z,18.00
2018-08-08T07:39:47.832Z,14.70
2018-08-08T07:40:47.780Z,17.40
2018-08-08T07:41:47.964Z,16.10
2018-08-08T07:42:47.944Z,15.90
2018-08-08T07:43:50.751Z,12.20
2018-08-08T07:44:47.908Z,14.50
2018-08-08T07:45:47.724Z,19.10
2018-08-08T07:46:47.673Z,16.70
2018-08-08T07:47:48.876Z,14.70
2018-08-08T07:48:47.634Z,12.30
2018-08-08T07:50:29.976Z,15.00
2018-08-08T07:51:29.756Z,15.80
2018-08-08T07:52:29.940Z,10.00
2018-08-08T07:53:29.926Z,14.40
2018-08-08T07:54:29.708Z,15.80
2018-08-08T07:55:31.103Z,12.00
2018-08-08T07:56:29.672Z,12.30
2018-08-08T07:58:12.157Z,14.00
2018-08-08T07:59:11.998Z,14.30
2018-08-08T08:00:11.780Z,25.30
2018-08-08T08:01:11.764Z,12.70
2018-08-08T08:02:11.751Z,14.60
2018-08-08T08:03:11.732Z,17.40
2018-08-08T08:04:11.919Z,18.70
2018-08-08T08:05:14.524Z,15.60
2018-08-08T08:06:14.509Z,19.30
2018-08-08T08:12:06.982Z,15.20
2018-08-08T08:13:06.764Z,13.00
2018-08-08T08:14:06.747Z,11.10
2018-08-08T08:16:31.257Z,16.90
2018-08-08T08:17:31.239Z,14.20
2018-08-08T08:18:31.224Z,20.20
2018-08-08T08:19:31.013Z,15.50
2018-08-08T08:20:30.993Z,18.00
2018-08-08T08:21:31.182Z,17.50
2018-08-08T08:22:31.166Z,15.50
2018-08-08T08:23:30.951Z,17.30
2018-08-08T08:24:30.948Z,18.50
2018-08-08T08:25:31.124Z,17.30
2018-08-08T08:27:13.269Z,15.90
2018-08-08T08:28:13.671Z,12.40
2018-08-08T08:29:56.566Z,13.60
2018-08-08T08:30:55.387Z,13.00
2018-08-08T08:31:55.373Z,12.30
2018-08-08T08:32:58.184Z,13.20
2018-08-08T08:33:55.345Z,12.50
2018-08-08T08:34:55.343Z,15.40
2018-08-08T08:35:55.345Z,15.00
2018-08-08T08:36:55.371Z,11.80
2018-08-08T08:37:55.308Z,15.00
2018-08-08T08:38:55.277Z,11.80
2018-08-08T08:39:55.269Z,12.60
2018-08-08T08:40:55.050Z,10.70
2018-08-08T08:41:55.242Z,14.80
2018-08-08T08:42:55.022Z,18.50
2018-08-08T08:43:55.009Z,12.10
2018-08-08T08:44:55.205Z,17.60
2018-08-08T08:45:55.388Z,14.60
2018-08-08T08:46:58.613Z,13.60
2018-08-08T08:47:54.957Z,15.50
2018-08-08T08:48:55.148Z,12.20
2018-08-08T08:49:55.194Z,11.10
2018-08-08T08:50:54.920Z,12.40
2018-08-08T08:51:58.755Z,14.10
2018-08-08T08:52:55.098Z,9.70
2018-08-08T08:53:55.086Z,11.10
2018-08-08T08:54:55.072Z,15.00
2018-08-08T08:56:39.640Z,11.70
2018-08-08T08:57:37.006Z,10.80
2018-08-08T08:58:37.202Z,12.10
2018-08-08T08:59:36.980Z,13.20
2018-08-08T09:00:36.966Z,17.70
2018-08-08T09:01:36.953Z,12.80
2018-08-08T09:02:37.027Z,10.10
2018-08-08T09:03:36.928Z,13.20
2018-08-08T09:04:36.913Z,13.30
2018-08-08T09:05:37.110Z,9.90
2018-08-08T09:06:37.086Z,26.70
2018-08-08T09:07:37.073Z,27.30
2018-08-08T09:08:37.058Z,14.60
2018-08-08T09:09:36.840Z,15.00
2018-08-08T09:10:36.828Z,21.60
2018-08-08T09:11:36.814Z,15.60
2018-08-08T09:12:36.804Z,11.70
2018-08-08T09:13:36.786Z,14.80
2018-08-08T09:14:36.772Z,14.60
2018-08-08T09:15:36.759Z,17.80
2018-08-08T09:16:36.947Z,15.00
2018-08-08T09:17:36.732Z,13.90
2018-08-08T09:19:19.083Z,10.90
2018-08-08T09:20:22.714Z,8.90
2018-08-08T09:21:19.057Z,8.10
2018-08-08T09:22:18.843Z,9.70
2018-08-08T09:23:19.032Z,17.20
2018-08-08T09:24:19.043Z,10.10
2018-08-08T09:25:18.806Z,11.70
2018-08-08T09:26:18.995Z,9.70
2018-08-08T09:27:18.782Z,10.10
2018-08-08T09:28:18.771Z,16.20
2018-08-08T09:30:01.124Z,9.10
2018-08-08T09:31:01.145Z,9.90
2018-08-08T09:32:01.101Z,14.90
2018-08-08T09:33:01.088Z,15.90
2018-08-08T09:34:01.077Z,11.20
2018-08-08T09:35:00.864Z,13.80
2018-08-08T09:36:01.052Z,10.30
2018-08-08T09:37:00.838Z,15.40
2018-08-08T09:38:01.155Z,9.40
2018-08-08T09:39:00.825Z,12.80
2018-08-08T09:40:01.005Z,15.90
2018-08-08T09:41:00.837Z,16.80
2018-08-08T09:42:01.591Z,15.20
2018-08-08T09:43:00.977Z,12.40
2018-08-08T09:44:00.971Z,16.70
2018-08-08T09:45:00.948Z,10.90
2018-08-08T09:46:02.149Z,14.00
2018-08-08T09:47:00.920Z,11.50
2018-08-08T09:48:04.743Z,11.10
2018-08-08T09:49:00.896Z,10.70
2018-08-08T09:50:00.680Z,13.50
2018-08-08T09:51:00.869Z,14.70
2018-08-08T09:52:00.660Z,17.10
2018-08-08T09:53:00.644Z,25.10
2018-08-08T09:54:00.830Z,18.10
2018-08-08T09:55:00.817Z,11.30
2018-08-08T09:56:00.803Z,14.00
2018-08-08T09:57:00.594Z,13.40
2018-08-08T09:58:00.576Z,14.00
2018-08-08T09:59:00.560Z,11.10
2018-08-08T10:00:00.547Z,16.70
2018-08-08T10:01:00.536Z,16.20
2018-08-08T10:02:00.520Z,17.10
2018-08-08T10:03:00.505Z,14.60
2018-08-08T10:04:00.492Z,11.50
2018-08-08T10:05:00.680Z,11.40
2018-08-08T10:06:00.465Z,14.50
2018-08-08T10:07:00.457Z,11.50
2018-08-08T10:08:00.437Z,9.80
2018-08-08T10:09:00.425Z,15.40
2018-08-08T10:10:01.018Z,11.90
2018-08-08T10:11:00.401Z,14.30
2018-08-08T10:12:00.383Z,11.90
2018-08-08T10:13:00.370Z,11.70
2018-08-08T10:14:00.561Z,16.00
2018-08-08T10:15:00.343Z,11.20
2018-08-08T10:16:00.334Z,9.80
2018-08-08T10:17:00.324Z,12.60
2018-08-08T10:18:00.312Z,12.30
2018-08-08T10:19:00.301Z,12.00
2018-08-08T10:20:00.276Z,9.50
2018-08-08T10:21:00.267Z,12.30
2018-08-08T10:22:00.259Z,10.80
2018-08-08T10:23:00.247Z,12.20
2018-08-08T10:24:00.228Z,14.70
2018-08-08T10:25:00.414Z,16.90
2018-08-08T10:26:00.201Z,11.80
2018-08-08T10:27:00.197Z,8.80
2018-08-08T10:28:00.175Z,11.50
2018-08-08T10:29:00.163Z,12.50
2018-08-08T10:30:00.354Z,15.40
2018-08-08T10:31:00.340Z,10.50
2018-08-08T10:32:00.332Z,16.30
2018-08-08T10:33:00.329Z,13.50
2018-08-08T10:34:00.317Z,9.30
2018-08-08T10:35:00.295Z,13.60
2018-08-08T10:36:00.281Z,8.60
2018-08-08T10:37:00.270Z,12.00
2018-08-08T10:38:02.886Z,10.70
2018-08-08T10:39:42.412Z,11.30
2018-08-08T10:40:42.199Z,11.10
2018-08-08T10:41:42.188Z,10.90
2018-08-08T10:42:42.182Z,11.70
2018-08-08T10:43:42.169Z,11.70
2018-08-08T10:44:42.163Z,11.70
2018-08-08T10:45:42.150Z,13.80
2018-08-08T10:46:42.140Z,14.10
2018-08-08T10:47:42.129Z,9.30
2018-08-08T10:48:42.119Z,11.80
2018-08-08T10:49:42.116Z,9.60
2018-08-08T10:50:42.104Z,12.30
2018-08-08T10:51:42.087Z,9.00
2018-08-08T10:52:42.083Z,11.80
2018-08-08T10:53:42.069Z,11.70
2018-08-08T10:54:42.062Z,6.70
2018-08-08T10:55:42.155Z,9.50
2018-08-08T10:56:42.242Z,9.80
2018-08-08T10:57:42.029Z,8.60
2018-08-08T10:58:42.222Z,10.00
2018-08-08T10:59:42.266Z,11.20
2018-08-08T11:00:42.209Z,9.20
2018-08-08T11:01:42.197Z,10.60
2018-08-08T11:24:30.067Z,11.80
2018-08-08T11:25:29.250Z,6.30
2018-08-08T11:26:31.859Z,8.60
2018-08-08T11:28:11.392Z,5.60
2018-08-08T11:29:11.179Z,6.10
2018-08-08T11:30:11.371Z,8.00
2018-08-08T11:31:11.363Z,10.10
2018-08-08T11:32:11.360Z,9.60
2018-08-08T11:33:11.546Z,20.40
2018-08-08T11:34:11.353Z,8.30
2018-08-08T11:35:11.122Z,6.30
2018-08-08T11:36:53.514Z,8.00
2018-08-08T11:37:53.272Z,8.10
2018-08-08T11:38:53.503Z,6.20
2018-08-08T11:39:53.458Z,6.60
2018-08-08T11:40:53.440Z,8.10
2018-08-08T11:41:53.233Z,7.70
2018-08-08T11:42:53.420Z,7.20
2018-08-08T11:43:53.206Z,10.40
2018-08-08T11:44:53.200Z,7.80
2018-08-08T11:45:53.185Z,13.90
2018-08-08T11:47:35.537Z,11.10
2018-08-08T11:48:35.323Z,14.90
2018-08-08T11:49:36.728Z,8.20
2018-08-08T11:50:35.503Z,10.90
2018-08-08T11:51:35.493Z,11.70
2018-08-08T11:52:35.478Z,11.20
2018-08-08T11:53:35.465Z,14.30
2018-08-08T11:54:38.280Z,8.20
2018-08-08T11:55:35.441Z,12.50
2018-08-08T11:56:35.432Z,11.00
2018-08-08T11:57:35.414Z,8.60
2018-08-08T11:58:35.199Z,8.90
2018-08-08T11:59:35.186Z,8.90
2018-08-08T12:00:35.174Z,12.70
2018-08-08T12:01:35.160Z,12.60
2018-08-08T12:02:35.149Z,24.60
2018-08-08T12:03:35.135Z,9.70
2018-08-08T12:04:35.121Z,10.10
2018-08-08T12:05:35.111Z,6.50
2018-08-08T12:06:35.096Z,11.20
2018-08-08T12:07:35.082Z,12.60
2018-08-08T12:08:35.071Z,14.80
2018-08-08T12:09:35.059Z,18.60
2018-08-08T12:10:35.052Z,15.20
2018-08-08T12:11:35.034Z,10.60
2018-08-08T12:12:35.027Z,10.90
2018-08-08T12:13:35.011Z,11.50
2018-08-08T12:14:34.998Z,13.90
2018-08-08T12:15:34.992Z,18.10
2018-08-08T12:16:34.971Z,13.80
2018-08-08T12:17:34.956Z,12.90
2018-08-08T12:18:34.947Z,15.80
2018-08-08T12:19:34.933Z,13.40
2018-08-08T12:20:34.920Z,11.10
2018-08-08T12:21:34.912Z,9.80
2018-08-08T12:22:34.946Z,12.40
2018-08-08T12:23:34.885Z,18.30
2018-08-08T12:24:34.871Z,7.60
2018-08-08T12:25:34.922Z,6.30
2018-08-08T12:26:34.851Z,9.40
2018-08-08T12:27:34.839Z,12.70
2018-08-08T12:28:34.854Z,7.60
2018-08-08T12:29:34.816Z,11.30
2018-08-08T12:30:34.812Z,15.10
2018-08-08T12:31:34.807Z,8.10
2018-08-08T12:32:34.782Z,11.60
2018-08-08T12:33:34.776Z,15.90
2018-08-08T12:34:34.771Z,6.20
2018-08-08T12:35:34.776Z,12.30
2018-08-08T12:36:34.733Z,9.70
2018-08-08T12:37:34.720Z,7.60
2018-08-08T12:38:34.726Z,6.60
2018-08-08T12:39:34.701Z,8.30
2018-08-08T12:40:34.685Z,9.00
2018-08-08T12:41:34.671Z,8.50
2018-08-08T12:42:34.660Z,8.50
2018-08-08T12:43:34.646Z,6.20
2018-08-08T12:44:34.913Z,15.20
2018-08-08T12:45:34.838Z,10.60
2018-08-08T12:46:34.607Z,9.00
2018-08-08T12:47:34.596Z,8.60
2018-08-08T12:48:34.581Z,23.50
2018-08-08T12:49:34.569Z,13.30
2018-08-08T12:50:34.556Z,16.00
2018-08-08T12:51:34.544Z,7.70
2018-08-08T12:52:34.731Z,17.50
2018-08-08T12:53:34.721Z,18.30
2018-08-08T12:54:34.711Z,14.80
2018-08-08T12:55:34.493Z,9.50
2018-08-08T12:56:34.479Z,14.70
2018-08-08T12:57:34.525Z,11.50
2018-08-08T12:58:34.454Z,15.30
2018-08-08T12:59:34.441Z,14.60
2018-08-08T13:00:34.432Z,11.30
2018-08-08T13:01:34.429Z,8.90
2018-08-08T13:02:34.406Z,12.40
2018-08-08T13:03:34.391Z,13.80
2018-08-08T13:04:34.377Z,12.40
2018-08-08T13:05:34.369Z,15.00
2018-08-08T13:06:34.371Z,10.90
2018-08-08T13:07:34.343Z,8.10
2018-08-08T13:08:34.404Z,5.90
2018-08-08T13:09:34.328Z,9.50
2018-08-08T13:10:34.302Z,9.90
2018-08-08T13:11:34.294Z,11.00
2018-08-08T13:12:34.279Z,29.10
2018-08-08T13:13:34.470Z,14.10
2018-08-08T13:14:34.453Z,9.40
2018-08-08T13:16:16.616Z,10.70
2018-08-08T13:17:16.592Z,15.10
2018-08-08T13:18:16.573Z,8.20
2018-08-08T13:19:16.562Z,11.00
2018-08-08T13:20:16.349Z,6.90
2018-08-08T13:21:16.530Z,9.70
2018-08-08T13:22:16.316Z,14.10
2018-08-08T13:23:16.301Z,28.70
2018-08-08T13:24:16.371Z,9.90
2018-08-08T13:25:16.473Z,12.50
2018-08-08T13:26:16.460Z,10.10
2018-08-08T13:27:58.643Z,15.70
2018-08-08T13:28:58.591Z,17.60
2018-08-08T13:29:58.576Z,12.60
2018-08-08T13:59:47.080Z,7.30
2018-08-08T14:01:29.256Z,12.00
2018-08-08T14:03:11.369Z,15.00
2018-08-08T14:04:11.168Z,13.00
2018-08-08T14:05:11.135Z,9.80
2018-08-08T14:06:11.120Z,7.00
2018-08-08T14:07:11.107Z,12.40
2018-08-08T14:08:11.090Z,11.20
2018-08-08T14:09:11.075Z,12.00
2018-08-08T14:10:11.059Z,10.70
2018-08-08T14:11:11.047Z,16.40
2018-08-08T14:12:11.045Z,19.20
2018-08-08T14:13:11.014Z,7.70
2018-08-08T14:14:11.036Z,7.70
2018-08-08T14:15:10.991Z,11.60
2018-08-08T14:16:10.973Z,7.00
2018-08-08T14:17:53.318Z,8.90
2018-08-08T14:18:53.303Z,7.40
2018-08-08T14:19:53.287Z,10.30
2018-08-08T14:20:53.273Z,8.60
2018-08-08T14:21:53.261Z,15.10
2018-08-08T14:22:53.241Z,8.70
2018-08-08T14:23:53.229Z,10.00
2018-08-08T14:24:53.216Z,13.80
2018-08-08T14:25:53.194Z,7.50
2018-08-08T14:26:53.258Z,10.60
2018-08-08T14:28:35.322Z,9.20
2018-08-08T14:29:35.302Z,7.90
2018-08-08T14:30:35.084Z,10.30
2018-08-08T14:31:35.270Z,15.80
2018-08-08T14:32:35.053Z,8.70
2018-08-08T14:33:35.235Z,13.20
2018-08-08T14:34:35.220Z,9.30
2018-08-08T14:35:35.054Z,11.70
2018-08-08T14:36:34.985Z,10.90
2018-08-08T14:37:34.968Z,11.90
2018-08-08T14:38:35.355Z,14.80
2018-08-08T14:39:34.933Z,16.60
2018-08-08T14:40:34.919Z,12.80
2018-08-08T14:41:34.898Z,9.90
2018-08-08T14:42:34.885Z,12.00
2018-08-08T14:43:34.874Z,14.50